createdAt,value
2019-04-13T02:02:54.323Z,4.20
2019-04-13T02:05:49.673Z,3.33
2019-04-13T02:09:02.649Z,3.43
2019-04-13T02:11:40.013Z,2.87
2019-04-13T02:14:13.760Z,3.10
2019-04-13T02:16:48.035Z,2.97
2019-04-13T02:19:23.165Z,4.27
2019-04-13T02:21:57.194Z,3.97
2019-04-13T02:24:31.456Z,2.83
2019-04-13T02:27:05.142Z,3.33
2019-04-13T02:29:39.116Z,2.70
2019-04-13T02:32:14.592Z,2.40
2019-04-13T02:34:50.215Z,2.40
2019-04-13T02:37:26.528Z,2.20
2019-04-13T02:40:01.004Z,2.40
2019-04-13T02:42:35.614Z,2.03
2019-04-13T02:45:09.782Z,2.17
2019-04-13T02:47:45.964Z,1.80
2019-04-13T02:50:19.486Z,1.77
2019-04-13T02:52:52.625Z,1.70
2019-04-13T02:55:44.388Z,2.30
2019-04-13T02:58:19.070Z,2.37
2019-04-13T03:00:53.241Z,3.30
2019-04-13T03:03:27.197Z,5.63
2019-04-13T03:06:01.082Z,4.80
2019-04-13T03:08:36.563Z,4.60
2019-04-13T03:11:10.459Z,5.63
2019-04-13T03:13:44.206Z,2.10
2019-04-13T03:16:39.807Z,2.43
2019-04-13T03:19:28.104Z,1.67
2019-04-13T03:22:02.064Z,2.13
2019-04-13T03:24:37.453Z,2.90
2019-04-13T03:27:11.876Z,2.90
2019-04-13T03:29:48.325Z,3.03
2019-04-13T03:32:22.167Z,2.27
2019-04-13T03:34:56.528Z,2.17
2019-04-13T03:37:30.730Z,1.90
2019-04-13T03:40:04.358Z,1.90
2019-04-13T03:42:38.077Z,2.77
2019-04-13T03:45:11.470Z,2.60
2019-04-13T03:47:47.188Z,2.27
2019-04-13T03:50:20.526Z,2.10
2019-04-13T03:52:53.909Z,2.20
2019-04-13T03:55:27.786Z,2.53
2019-04-13T03:58:01.659Z,2.70
2019-04-13T04:00:36.657Z,2.90
2019-04-13T04:03:10.694Z,2.97
2019-04-13T04:05:44.535Z,3.60
2019-04-13T04:08:18.600Z,4.17
2019-04-13T04:10:52.291Z,3.33
2019-04-13T04:13:26.320Z,3.37
2019-04-13T04:16:00.264Z,4.63
2019-04-13T04:18:34.369Z,4.00
2019-04-13T04:21:10.535Z,3.23
2019-04-13T04:23:44.612Z,4.93
2019-04-13T04:26:20.100Z,9.07
2019-04-13T04:28:53.225Z,4.63
2019-04-13T04:31:26.873Z,3.97
2019-04-13T04:34:01.610Z,3.07
2019-04-13T04:36:34.751Z,3.70
2019-04-13T04:39:09.672Z,9.27
2019-04-13T04:41:43.425Z,8.03
2019-04-13T04:44:17.520Z,4.60
2019-04-13T04:46:53.326Z,4.47
2019-04-13T04:49:26.959Z,3.00
2019-04-13T04:52:00.682Z,4.93
2019-04-13T04:54:34.859Z,6.87
2019-04-13T04:57:08.762Z,4.60
2019-04-13T04:59:48.421Z,3.93
2019-04-13T05:02:23.260Z,3.47
2019-04-13T05:04:59.595Z,4.00
2019-04-13T05:07:34.237Z,3.90
2019-04-13T05:10:11.726Z,5.53
2019-04-13T05:12:45.555Z,3.73
2019-04-13T05:15:20.221Z,4.67
2019-04-13T05:17:53.835Z,3.97
2019-04-13T05:20:29.510Z,3.87
2019-04-13T05:23:07.098Z,5.03
2019-04-13T05:25:41.711Z,7.93
2019-04-13T05:28:18.397Z,5.40
2019-04-13T05:30:53.679Z,4.33
2019-04-13T05:33:32.844Z,7.73
2019-04-13T05:36:24.022Z,6.47
2019-04-13T05:38:57.592Z,7.60
2019-04-13T05:41:36.995Z,4.00
2019-04-13T05:44:11.881Z,5.40
2019-04-13T05:46:50.323Z,8.90
2019-04-13T05:49:24.499Z,4.57
2019-04-13T05:52:02.114Z,9.73
2019-04-13T05:54:38.336Z,5.87
2019-04-13T05:57:14.102Z,4.90
2019-04-13T05:59:47.505Z,6.83
2019-04-13T06:02:26.604Z,5.50
2019-04-13T06:05:02.601Z,7.23
2019-04-13T06:07:45.026Z,6.00
2019-04-13T06:10:21.446Z,4.97
2019-04-13T06:12:57.834Z,8.47
2019-04-13T06:15:36.020Z,8.13
2019-04-13T06:18:20.781Z,5.97
2019-04-13T06:20:46.855Z,4.70
2019-04-13T06:23:22.264Z,4.73
2019-04-13T06:25:59.722Z,5.40
2019-04-13T06:28:32.344Z,5.13
2019-04-13T06:31:33.642Z,4.33
2019-04-13T06:34:35.269Z,6.80
2019-04-13T06:37:12.453Z,4.17
2019-04-13T06:39:45.977Z,4.50
2019-04-13T06:42:25.798Z,3.87
2019-04-13T06:45:00.143Z,5.33
2019-04-13T06:47:37.286Z,4.10
2019-04-13T06:50:14.263Z,4.37
2019-04-13T06:52:49.887Z,4.07
2019-04-13T06:55:24.694Z,3.50
2019-04-13T06:58:00.366Z,9.83
2019-04-13T07:00:34.621Z,8.03
2019-04-13T07:03:08.114Z,9.00
2019-04-13T07:05:45.056Z,9.77
2019-04-13T07:08:41.468Z,4.50
2019-04-13T07:11:39.482Z,4.40
2019-04-13T07:14:15.718Z,7.53
2019-04-13T07:17:18.003Z,7.33
2019-04-13T07:19:55.439Z,6.30
2019-04-13T07:22:30.866Z,6.47
2019-04-13T07:25:10.478Z,4.87
2019-04-13T07:27:43.749Z,4.93
2019-04-13T07:30:22.411Z,4.70
2019-04-13T07:33:00.774Z,5.30
2019-04-13T07:35:36.764Z,5.13
2019-04-13T07:38:20.541Z,11.63
2019-04-13T07:41:00.592Z,6.70
2019-04-13T07:43:35.806Z,5.57
2019-04-13T07:46:37.265Z,8.43
2019-04-13T07:49:28.112Z,7.60
2019-04-13T07:52:19.997Z,3.80
2019-04-13T07:54:54.709Z,5.80
2019-04-13T07:57:38.605Z,5.07
2019-04-13T08:00:13.812Z,4.47
2019-04-13T08:02:50.476Z,4.07
2019-04-13T08:05:26.556Z,5.00
2019-04-13T08:08:02.928Z,3.93
2019-04-13T08:10:39.402Z,7.20
2019-04-13T08:13:14.798Z,4.30
2019-04-13T08:15:49.806Z,3.70
2019-04-13T08:18:45.938Z,4.77
2019-04-13T08:21:24.079Z,4.07
2019-04-13T08:23:59.454Z,7.00
2019-04-13T08:26:33.108Z,5.17
2019-04-13T08:29:08.928Z,7.93
2019-04-13T08:31:43.572Z,3.80
2019-04-13T08:34:19.971Z,5.20
2019-04-13T08:36:53.782Z,6.53
2019-04-13T08:39:28.611Z,7.03
2019-04-13T08:42:03.989Z,3.93
2019-04-13T08:44:40.055Z,3.70
2019-04-13T08:47:16.212Z,3.90
2019-04-13T08:49:50.836Z,4.17
2019-04-13T08:52:24.402Z,3.90
2019-04-13T08:55:05.859Z,4.17
2019-04-13T08:57:47.920Z,7.00
2019-04-13T09:00:26.261Z,9.93
2019-04-13T09:03:02.753Z,4.77
2019-04-13T09:05:44.834Z,3.47
2019-04-13T09:08:28.910Z,4.40
2019-04-13T09:11:04.335Z,7.87
2019-04-13T09:13:38.295Z,3.40
2019-04-13T09:16:28.702Z,3.87
2019-04-13T09:19:22.950Z,3.60
2019-04-13T09:22:03.233Z,6.87
2019-04-13T09:24:37.800Z,3.53
2019-04-13T09:27:13.726Z,4.07
2019-04-13T09:29:47.819Z,3.63
2019-04-13T09:32:21.994Z,5.87
2019-04-13T09:34:59.101Z,4.13
2019-04-13T09:37:35.144Z,3.67
2019-04-13T09:40:09.185Z,3.93
2019-04-13T09:42:51.086Z,3.97
2019-04-13T09:45:25.136Z,3.87
2019-04-13T09:48:01.262Z,3.10
2019-04-13T09:50:36.882Z,3.83
2019-04-13T09:53:13.090Z,3.60
2019-04-13T09:55:49.997Z,5.63
2019-04-13T09:58:26.558Z,5.20
2019-04-13T10:01:02.981Z,7.23
2019-04-13T10:03:41.274Z,5.50
2019-04-13T10:06:16.932Z,5.10
2019-04-13T10:08:56.010Z,4.00
2019-04-13T10:11:40.206Z,3.30
2019-04-13T10:14:36.438Z,3.40
2019-04-13T10:17:23.519Z,3.43
2019-04-13T10:20:00.006Z,4.17
2019-04-13T10:22:34.178Z,3.87
2019-04-13T10:25:10.306Z,4.30
2019-04-13T10:27:47.671Z,5.13
2019-04-13T10:30:23.345Z,5.33
2019-04-13T10:32:58.403Z,4.27
2019-04-13T10:35:33.315Z,3.00
2019-04-13T10:38:19.651Z,2.90
2019-04-13T10:40:57.205Z,3.10
2019-04-13T10:43:32.909Z,3.07
2019-04-13T10:46:28.224Z,3.20
2019-04-13T10:49:34.468Z,3.03
2019-04-13T10:52:27.804Z,2.97
2019-04-13T10:55:02.002Z,3.27
2019-04-13T10:57:38.693Z,3.53
2019-04-13T11:00:13.674Z,2.90
2019-04-13T11:02:53.849Z,5.27
2019-04-13T11:05:27.676Z,3.33
2019-04-13T11:08:02.687Z,2.00
2019-04-13T11:10:36.472Z,2.90
2019-04-13T11:13:10.916Z,2.50
2019-04-13T11:15:50.556Z,2.53
2019-04-13T11:18:27.494Z,3.30
2019-04-13T11:25:02.539Z,4.20
2019-04-13T11:27:38.437Z,3.93
2019-04-13T11:30:16.718Z,3.27
2019-04-13T11:32:56.713Z,4.70
2019-04-13T11:35:36.393Z,4.27
2019-04-13T11:38:18.685Z,3.80
2019-04-13T11:41:06.579Z,3.80
2019-04-13T11:44:07.392Z,3.77
2019-04-13T11:47:11.288Z,3.77
2019-04-13T11:49:47.567Z,3.60
2019-04-13T11:52:22.736Z,2.87
2019-04-13T11:55:00.097Z,3.60
2019-04-13T11:57:37.703Z,3.50
2019-04-13T12:00:32.362Z,5.70
2019-04-13T12:03:45.658Z,4.33
2019-04-13T12:06:47.735Z,3.83
2019-04-13T12:09:49.668Z,2.37
2019-04-13T12:12:34.032Z,2.60
2019-04-13T12:15:59.312Z,2.80
2019-04-13T12:19:02.719Z,3.20
2019-04-13T12:22:04.756Z,4.50
2019-04-13T12:24:41.593Z,2.87
2019-04-13T12:27:15.934Z,3.10
2019-04-13T12:29:50.903Z,2.20
2019-04-13T12:32:31.695Z,2.87
2019-04-13T12:35:07.914Z,3.80
2019-04-13T12:37:43.613Z,3.03
2019-04-13T12:40:35.507Z,3.23
2019-04-13T12:43:09.904Z,3.23
2019-04-13T12:45:43.541Z,4.80
2019-04-13T12:48:18.776Z,3.33
2019-04-13T12:50:52.765Z,5.07
2019-04-13T12:53:26.568Z,5.43
2019-04-13T12:56:03.153Z,3.40
2019-04-13T12:58:39.361Z,3.17
2019-04-13T13:01:21.430Z,4.17
2019-04-13T13:04:07.416Z,3.50
2019-04-13T13:06:41.088Z,3.10
2019-04-13T13:09:17.283Z,2.70
2019-04-13T13:11:51.982Z,2.70
2019-04-13T13:14:29.010Z,3.87
2019-04-13T13:17:02.937Z,3.60
2019-04-13T13:19:37.446Z,5.30
2019-04-13T13:22:11.159Z,4.50
2019-04-13T13:24:45.602Z,5.40
2019-04-13T13:27:21.393Z,4.67
2019-04-13T13:29:57.848Z,16.87
2019-04-13T13:32:33.232Z,12.37
2019-04-13T13:35:07.169Z,6.70
2019-04-13T13:37:43.093Z,5.30
2019-04-13T13:40:30.460Z,6.37
2019-04-13T13:42:53.513Z,5.27
2019-04-13T13:45:29.766Z,5.27
2019-04-13T13:48:03.444Z,6.60
2019-04-13T13:50:37.279Z,5.50
2019-04-13T13:53:11.651Z,6.30
2019-04-13T13:55:47.257Z,7.67
2019-04-13T13:58:41.351Z,5.33
2019-04-13T14:01:28.560Z,5.03
2019-04-13T14:04:05.450Z,6.77
2019-04-13T14:06:43.039Z,10.10
2019-04-13T14:09:17.249Z,5.90
2019-04-13T14:11:51.066Z,7.77
2019-04-13T14:14:25.891Z,5.30
2019-04-13T14:16:59.772Z,7.60
2019-04-13T14:19:33.666Z,7.70
2019-04-13T14:22:17.293Z,6.63
2019-04-13T14:24:50.463Z,7.93
2019-04-13T14:27:24.538Z,6.70
2019-04-13T14:30:02.808Z,6.93
2019-04-13T14:32:37.431Z,8.60
2019-04-13T14:36:24.306Z,7.83
2019-04-13T14:39:03.073Z,7.43
2019-04-13T14:41:41.827Z,7.47
2019-04-13T14:44:19.602Z,9.93
2019-04-13T14:46:52.266Z,8.33
2019-04-13T14:49:28.198Z,8.33
2019-04-13T14:52:01.449Z,6.50
2019-04-13T14:54:35.405Z,7.70
2019-04-13T14:57:10.343Z,6.70
2019-04-13T14:59:49.259Z,9.40
2019-04-13T15:02:20.356Z,9.33
2019-04-13T15:04:53.573Z,8.70
2019-04-13T15:07:30.412Z,11.37
2019-04-13T15:10:05.930Z,10.37
2019-04-13T15:12:40.295Z,10.60
2019-04-13T15:15:13.552Z,10.53
2019-04-13T15:18:22.225Z,9.73
2019-04-13T15:20:58.312Z,9.93
2019-04-13T15:23:36.598Z,8.80
2019-04-13T15:26:10.294Z,7.83
2019-04-13T15:28:47.168Z,7.97
2019-04-13T15:31:27.324Z,10.03
2019-04-13T15:34:01.999Z,5.90
2019-04-13T15:36:35.707Z,10.53
2019-04-13T15:39:27.149Z,8.33
2019-04-13T15:42:08.560Z,7.43
2019-04-13T15:44:45.150Z,7.57
2019-04-13T15:47:22.212Z,7.67
2019-04-13T15:49:52.777Z,6.57
2019-04-13T15:52:26.754Z,7.63
2019-04-13T15:56:06.976Z,8.10
2019-04-13T15:58:48.994Z,7.90
2019-04-13T16:01:46.345Z,10.00
2019-04-13T16:04:21.269Z,9.53
2019-04-13T16:06:55.120Z,8.90
2019-04-13T16:09:47.795Z,7.80
2019-04-13T16:12:44.975Z,11.30
2019-04-13T16:15:25.121Z,9.10
2019-04-13T16:18:04.469Z,22.23
2019-04-13T16:20:55.986Z,14.27
2019-04-13T16:23:37.034Z,11.90
2019-04-13T16:26:10.402Z,10.77
2019-04-13T16:29:03.429Z,11.20
2019-04-13T16:31:57.083Z,10.73
2019-04-13T16:34:46.627Z,10.67
2019-04-13T16:37:34.210Z,8.90
2019-04-13T16:40:14.189Z,9.77
2019-04-13T16:42:50.935Z,8.03
2019-04-13T16:45:44.584Z,8.10
2019-04-13T16:48:44.833Z,7.70
2019-04-13T16:51:52.016Z,7.40
2019-04-13T16:54:56.845Z,9.37
2019-04-13T16:57:44.745Z,8.30
2019-04-13T17:00:54.044Z,7.90
2019-04-13T17:03:52.811Z,10.53
2019-04-13T17:06:29.131Z,6.97
2019-04-13T17:09:06.411Z,8.70
2019-04-13T17:11:41.946Z,9.80
2019-04-13T17:14:20.393Z,8.53
2019-04-13T17:17:01.317Z,7.80
2019-04-13T17:20:18.724Z,8.00
2019-04-13T17:23:14.969Z,8.80
2019-04-13T17:26:33.576Z,9.10
2019-04-13T17:29:31.598Z,8.83
2019-04-13T17:32:29.183Z,10.50
2019-04-13T17:35:13.876Z,10.67
2019-04-13T17:37:52.710Z,12.13
2019-04-13T17:40:36.298Z,10.17
2019-04-13T17:43:37.141Z,9.13
2019-04-13T17:46:33.900Z,11.17
2019-04-13T17:49:44.950Z,11.47
2019-04-13T17:52:46.502Z,10.97
2019-04-13T17:55:48.186Z,10.63
2019-04-13T17:58:50.453Z,11.10
2019-04-13T18:01:44.004Z,11.50
2019-04-13T18:04:37.350Z,14.67
2019-04-13T18:07:30.057Z,11.77
2019-04-13T18:10:42.300Z,13.10
2019-04-13T18:14:02.659Z,11.50
2019-04-13T18:17:15.819Z,11.90
2019-04-13T18:19:52.869Z,10.97
2019-04-13T18:22:28.854Z,12.63
2019-04-13T18:25:09.956Z,12.67
2019-04-13T18:27:45.651Z,11.93
2019-04-13T18:30:37.811Z,11.27
2019-04-13T18:33:09.791Z,11.37
2019-04-13T18:35:44.652Z,11.10
2019-04-13T18:38:19.419Z,14.17
2019-04-13T18:40:53.878Z,13.37
2019-04-13T18:43:30.124Z,11.60
2019-04-13T18:46:05.353Z,12.77
2019-04-13T18:48:44.851Z,11.93
2019-04-13T18:51:19.137Z,11.27
2019-04-13T18:53:54.969Z,13.10
2019-04-13T18:56:31.575Z,11.03
2019-04-13T18:59:06.542Z,11.27
2019-04-13T19:01:43.115Z,12.53
2019-04-13T19:04:17.997Z,13.47
2019-04-13T19:06:56.862Z,15.13
2019-04-13T19:09:31.811Z,11.87
2019-04-13T19:12:07.982Z,14.83
2019-04-13T19:14:42.473Z,11.63
2019-04-13T19:17:15.931Z,11.77
2019-04-13T19:19:50.999Z,13.53
2019-04-13T19:22:30.838Z,14.00
2019-04-13T19:25:05.069Z,12.17
2019-04-13T19:27:43.780Z,16.77
2019-04-13T19:30:17.831Z,15.33
2019-04-13T19:32:51.077Z,15.53
2019-04-13T19:35:29.737Z,16.63
2019-04-13T19:38:08.352Z,16.03
2019-04-13T19:40:43.082Z,21.57
2019-04-13T19:43:16.998Z,16.90
2019-04-13T19:45:50.943Z,15.87
2019-04-13T19:48:28.409Z,15.80
2019-04-13T19:51:03.875Z,14.10
2019-04-13T19:54:11.470Z,18.20
2019-04-13T19:56:47.516Z,15.93
2019-04-13T19:59:23.444Z,14.63
2019-04-13T20:01:59.790Z,15.70
2019-04-13T20:04:43.921Z,14.90
2019-04-13T20:07:20.295Z,15.30
2019-04-13T20:09:56.166Z,17.30
2019-04-13T20:12:30.075Z,13.93
2019-04-13T20:15:07.922Z,16.70
2019-04-13T20:17:42.153Z,14.70
2019-04-13T20:20:22.511Z,17.57
2019-04-13T20:22:59.294Z,13.87
2019-04-13T20:25:35.331Z,13.97
2019-04-13T20:28:11.789Z,13.10
2019-04-13T20:30:47.804Z,14.80
2019-04-13T20:33:22.095Z,15.10
2019-04-13T20:36:05.195Z,24.20
2019-04-13T20:38:34.822Z,18.03
2019-04-13T20:41:21.485Z,16.37
2019-04-13T20:44:02.907Z,15.40
2019-04-13T20:46:36.269Z,15.70
2019-04-13T20:49:10.721Z,14.57
2019-04-13T20:51:45.237Z,14.57
2019-04-13T20:54:19.940Z,17.87
2019-04-13T20:56:55.594Z,15.07
2019-04-13T20:59:34.619Z,13.07
2019-04-13T21:02:09.467Z,14.33
2019-04-13T21:04:48.074Z,14.00
2019-04-13T21:07:25.475Z,13.93
2019-04-13T21:09:59.602Z,12.60
2019-04-13T21:12:35.152Z,14.57
2019-04-13T21:15:11.872Z,12.10
2019-04-13T21:17:48.975Z,10.93
2019-04-13T21:20:34.018Z,11.13
2019-04-13T21:23:12.479Z,13.03
2019-04-13T21:25:47.344Z,11.23
2019-04-13T21:28:30.519Z,10.33
2019-04-13T21:31:07.027Z,10.50
2019-04-13T21:33:41.025Z,11.97
2019-04-13T21:36:17.331Z,11.80
2019-04-13T21:38:54.056Z,10.57
2019-04-13T21:41:30.347Z,11.90
2019-04-13T21:44:13.326Z,15.57
2019-04-13T21:46:40.041Z,10.73
2019-04-13T21:49:14.347Z,10.60
2019-04-13T21:55:37.750Z,12.90
2019-04-13T21:58:14.109Z,11.50
2019-04-13T22:01:16.886Z,10.60
2019-04-13T22:03:53.393Z,10.73
2019-04-13T22:06:29.890Z,12.27
2019-04-13T22:09:07.140Z,11.00
2019-04-13T22:11:43.056Z,10.97
2019-04-13T22:14:29.533Z,11.43
2019-04-13T22:16:56.365Z,19.27
2019-04-13T22:19:33.270Z,13.23
2019-04-13T22:22:09.634Z,11.13
2019-04-13T22:24:44.226Z,12.27
2019-04-13T22:27:18.354Z,10.90
2019-04-13T22:29:57.478Z,11.20
2019-04-13T22:32:45.101Z,13.33
2019-04-13T22:35:32.438Z,11.90
2019-04-13T22:38:06.998Z,13.70
2019-04-13T22:40:38.924Z,13.30
2019-04-13T22:43:13.286Z,13.33
2019-04-13T22:45:49.309Z,18.03
2019-04-13T22:48:44.754Z,16.23
2019-04-13T22:51:37.954Z,15.93
2019-04-13T22:54:36.384Z,14.60
2019-04-13T22:57:30.465Z,12.87
2019-04-13T23:00:14.764Z,12.37
2019-04-13T23:02:54.166Z,15.40
2019-04-13T23:05:28.677Z,14.30
2019-04-13T23:08:03.169Z,14.03
2019-04-13T23:10:37.580Z,14.13
2019-04-13T23:13:12.461Z,11.83
2019-04-13T23:15:47.075Z,12.93
2019-04-13T23:18:23.179Z,13.43
2019-04-13T23:20:58.248Z,14.10
2019-04-13T23:23:33.445Z,11.70
2019-04-13T23:26:08.015Z,12.63
2019-04-13T23:28:40.312Z,13.60
2019-04-13T23:31:14.945Z,13.17
2019-04-13T23:33:49.656Z,14.53
2019-04-13T23:36:22.889Z,12.10
2019-04-13T23:38:57.371Z,12.67
2019-04-13T23:41:32.256Z,8.97
2019-04-13T23:44:06.946Z,8.20
2019-04-13T23:46:40.041Z,9.60
2019-04-13T23:49:14.587Z,9.00
2019-04-13T23:51:48.865Z,9.50
2019-04-13T23:54:22.572Z,7.07
2019-04-13T23:57:16.450Z,9.20
